createdAt,value
2017-01-06T00:00:13.570Z,0
2017-01-06T00:01:14.421Z,0
2017-01-06T00:02:14.031Z,0
2017-01-06T00:03:13.594Z,0
2017-01-06T00:04:14.051Z,0
2017-01-06T00:05:14.108Z,0
2017-01-06T00:06:14.016Z,0
2017-01-06T00:07:14.071Z,0
2017-01-06T00:08:14.433Z,0
2017-01-06T00:09:13.747Z,0
2017-01-06T00:10:14.538Z,0
2017-01-06T00:11:13.710Z,0
2017-01-06T00:12:13.718Z,0
2017-01-06T00:13:13.722Z,0
2017-01-06T00:14:13.738Z,0
2017-01-06T00:15:14.188Z,0
2017-01-06T00:16:14.043Z,0
2017-01-06T00:17:14.147Z,0
2017-01-06T00:18:13.812Z,0
2017-01-06T00:19:14.165Z,0
2017-01-06T00:20:14.126Z,0
2017-01-06T00:21:13.735Z,0
2017-01-06T00:22:14.484Z,0
2017-01-06T00:23:13.796Z,0
2017-01-06T00:24:14.157Z,0
2017-01-06T00:25:14.357Z,0
2017-01-06T00:26:13.750Z,0
2017-01-06T00:27:14.825Z,0
2017-01-06T00:28:14.187Z,0
2017-01-06T00:29:14.755Z,0
2017-01-06T00:30:13.803Z,0
2017-01-06T00:31:13.839Z,0
2017-01-06T00:32:14.169Z,0
2017-01-06T00:33:14.276Z,0
2017-01-06T00:34:14.181Z,0
2017-01-06T00:35:13.399Z,0
2017-01-06T00:36:14.307Z,0
2017-01-06T00:37:13.861Z,0
2017-01-06T00:38:14.217Z,0
2017-01-06T00:39:13.986Z,0
2017-01-06T00:40:13.838Z,0
2017-01-06T00:41:13.602Z,0
2017-01-06T00:42:13.848Z,0
2017-01-06T00:43:14.753Z,0
2017-01-06T00:44:14.310Z,0
2017-01-06T00:45:14.419Z,0
2017-01-06T00:46:14.275Z,0
2017-01-06T00:47:14.436Z,0
2017-01-06T00:48:14.289Z,0
2017-01-06T00:49:14.403Z,0
2017-01-06T00:50:13.566Z,0
2017-01-06T00:51:14.363Z,0
2017-01-06T00:52:14.075Z,0
2017-01-06T00:53:14.381Z,0
2017-01-06T00:54:14.348Z,0
2017-01-06T00:55:14.347Z,0
2017-01-06T00:56:14.008Z,0
2017-01-06T00:57:14.412Z,0
2017-01-06T00:58:15.921Z,0
2017-01-06T00:59:14.035Z,0
2017-01-06T01:00:14.483Z,0
2017-01-06T01:01:14.445Z,0
2017-01-06T01:02:14.503Z,0
2017-01-06T01:03:14.853Z,0
2017-01-06T01:04:14.020Z,0
2017-01-06T01:05:13.780Z,0
2017-01-06T01:06:14.982Z,0
2017-01-06T01:07:14.143Z,0
2017-01-06T01:08:14.548Z,0
2017-01-06T01:09:14.111Z,0
2017-01-06T01:10:14.893Z,0
2017-01-06T01:11:14.227Z,0
2017-01-06T01:12:13.786Z,0
2017-01-06T01:13:14.195Z,0
2017-01-06T01:14:14.959Z,0
2017-01-06T01:15:14.158Z,0
2017-01-06T01:16:14.514Z,0
2017-01-06T01:17:14.173Z,0
2017-01-06T01:18:14.233Z,0
2017-01-06T01:19:14.187Z,0
2017-01-06T01:20:13.799Z,0
2017-01-06T01:21:14.571Z,0
2017-01-06T01:22:14.266Z,0
2017-01-06T01:23:14.618Z,0
2017-01-06T01:24:15.072Z,0
2017-01-06T01:25:14.485Z,0
2017-01-06T01:26:15.037Z,0
2017-01-06T01:27:13.963Z,0
2017-01-06T01:28:29.138Z,0
2017-01-06T01:29:14.615Z,0
2017-01-06T01:30:14.668Z,0
2017-01-06T01:31:15.073Z,0
2017-01-06T01:32:14.688Z,0
2017-01-06T01:33:13.904Z,0
2017-01-06T01:34:14.436Z,0
2017-01-06T01:35:14.658Z,0
2017-01-06T01:36:14.372Z,0
2017-01-06T01:37:14.724Z,0
2017-01-06T01:38:14.781Z,0
2017-01-06T01:39:14.793Z,0
2017-01-06T01:40:15.144Z,0
2017-01-06T01:41:14.709Z,0
2017-01-06T01:42:14.768Z,0
2017-01-06T01:43:14.501Z,0
2017-01-06T01:44:14.879Z,0
2017-01-06T01:45:14.791Z,0
2017-01-06T01:46:14.649Z,0
2017-01-06T01:47:14.412Z,0
2017-01-06T01:48:14.861Z,0
2017-01-06T01:49:14.819Z,0
2017-01-06T01:50:14.831Z,0
2017-01-06T01:51:14.839Z,0
2017-01-06T01:52:14.446Z,0
2017-01-06T01:53:14.908Z,0
2017-01-06T01:54:15.304Z,0
2017-01-06T01:55:14.866Z,0
2017-01-06T01:56:14.925Z,0
2017-01-06T01:57:14.089Z,0
2017-01-06T01:58:15.488Z,0
2017-01-06T01:59:14.502Z,0
2017-01-06T02:00:14.911Z,0
2017-01-06T02:01:46.991Z,0
2017-01-06T02:02:14.922Z,0
2017-01-06T02:03:15.231Z,0
2017-01-06T02:04:14.965Z,0
2017-01-06T02:05:15.388Z,0
2017-01-06T02:06:14.903Z,0
2017-01-06T02:07:14.567Z,0
2017-01-06T02:08:14.576Z,0
2017-01-06T02:09:14.715Z,0
2017-01-06T02:10:15.476Z,0
2017-01-06T02:11:14.151Z,0
2017-01-06T02:12:15.451Z,0
2017-01-06T02:13:15.010Z,0
2017-01-06T02:14:15.460Z,0
2017-01-06T02:15:14.284Z,0
2017-01-06T02:16:15.430Z,0
2017-01-06T02:17:14.196Z,0
2017-01-06T02:18:15.096Z,0
2017-01-06T02:19:14.762Z,0
2017-01-06T02:20:15.061Z,0
2017-01-06T02:21:14.676Z,0
2017-01-06T02:22:15.523Z,0
2017-01-06T02:23:15.238Z,0
2017-01-06T02:24:14.300Z,0
2017-01-06T02:25:15.009Z,0
2017-01-06T02:26:15.060Z,0
2017-01-06T02:27:15.165Z,0
2017-01-06T02:28:15.225Z,0
2017-01-06T02:29:14.690Z,0
2017-01-06T02:30:15.095Z,0
2017-01-06T02:31:15.543Z,0
2017-01-06T02:32:15.204Z,0
2017-01-06T02:33:15.263Z,0
2017-01-06T02:34:14.380Z,0
2017-01-06T02:35:15.230Z,0
2017-01-06T02:36:14.395Z,0
2017-01-06T02:37:14.798Z,0
2017-01-06T02:38:14.815Z,0
2017-01-06T02:39:14.819Z,0
2017-01-06T02:40:15.368Z,0
2017-01-06T02:41:15.174Z,0
2017-01-06T02:42:15.235Z,0
2017-01-06T02:43:14.451Z,0
2017-01-06T02:44:15.195Z,0
2017-01-06T02:45:14.463Z,0
2017-01-06T02:46:15.267Z,0
2017-01-06T02:47:15.282Z,0
2017-01-06T02:48:15.282Z,0
2017-01-06T02:49:15.391Z,0
2017-01-06T02:50:14.949Z,0
2017-01-06T02:51:15.358Z,0
2017-01-06T02:52:15.266Z,0
2017-01-06T02:53:15.025Z,0
2017-01-06T02:54:14.879Z,0
2017-01-06T02:55:15.689Z,0
2017-01-06T02:56:15.344Z,0
2017-01-06T02:57:15.744Z,0
2017-01-06T02:58:14.963Z,0
2017-01-06T02:59:14.970Z,0
2017-01-06T03:00:14.931Z,0
2017-01-06T03:01:14.985Z,0
2017-01-06T03:02:15.390Z,0
2017-01-06T03:03:15.444Z,0
2017-01-06T03:04:15.009Z,0
2017-01-06T03:05:15.064Z,0
2017-01-06T03:06:15.817Z,0
2017-01-06T03:07:15.478Z,0
2017-01-06T03:08:15.386Z,0
2017-01-06T03:09:15.492Z,0
2017-01-06T03:10:15.108Z,0
2017-01-06T03:11:15.140Z,0
2017-01-06T03:12:15.515Z,0
2017-01-06T03:13:15.424Z,0
2017-01-06T03:14:15.090Z,0
2017-01-06T03:15:15.440Z,0
2017-01-06T03:16:15.154Z,0
2017-01-06T03:17:15.503Z,0
2017-01-06T03:18:15.119Z,0
2017-01-06T03:19:15.572Z,0
2017-01-06T03:20:15.529Z,0
2017-01-06T03:21:15.587Z,0
2017-01-06T03:22:15.552Z,0
2017-01-06T03:23:15.507Z,0
2017-01-06T03:24:15.172Z,0
2017-01-06T03:25:14.781Z,0
2017-01-06T03:26:15.691Z,0
2017-01-06T03:27:15.735Z,0
2017-01-06T03:28:15.546Z,0
2017-01-06T03:29:15.503Z,0
2017-01-06T03:30:15.610Z,0
2017-01-06T03:31:15.617Z,0
2017-01-06T03:32:16.023Z,0
2017-01-06T03:33:16.080Z,0
2017-01-06T03:34:15.590Z,0
2017-01-06T03:35:15.257Z,0
2017-01-06T03:36:15.561Z,0
2017-01-06T03:37:15.274Z,0
2017-01-06T03:38:15.722Z,0
2017-01-06T03:39:15.535Z,0
2017-01-06T03:40:15.291Z,0
2017-01-06T03:41:15.247Z,0
2017-01-06T03:42:15.312Z,0
2017-01-06T03:43:15.363Z,0
2017-01-06T03:44:15.719Z,0
2017-01-06T03:45:14.985Z,0
2017-01-06T03:46:15.737Z,0
2017-01-06T03:47:14.953Z,0
2017-01-06T03:48:16.097Z,0
2017-01-06T03:49:15.759Z,0
2017-01-06T03:50:15.818Z,0
2017-01-06T03:51:15.328Z,0
2017-01-06T03:52:16.130Z,0
2017-01-06T03:53:15.793Z,0
2017-01-06T03:54:15.403Z,0
2017-01-06T03:55:15.808Z,0
2017-01-06T03:56:15.864Z,0
2017-01-06T03:57:16.274Z,0
2017-01-06T03:58:15.880Z,0
2017-01-06T03:59:15.788Z,0
2017-01-06T04:00:15.403Z,0
2017-01-06T04:01:15.464Z,0
2017-01-06T04:02:15.520Z,0
2017-01-06T04:03:16.418Z,0
2017-01-06T04:04:15.825Z,0
2017-01-06T04:05:16.241Z,0
2017-01-06T04:06:15.048Z,0
2017-01-06T04:07:15.452Z,0
2017-01-06T04:08:15.563Z,0
2017-01-06T04:09:16.023Z,0
2017-01-06T04:10:15.634Z,0
2017-01-06T04:11:15.982Z,0
2017-01-06T04:12:15.948Z,0
2017-01-06T04:13:15.901Z,0
2017-01-06T04:14:15.957Z,0
2017-01-06T04:15:15.967Z,0
2017-01-06T04:16:15.179Z,0
2017-01-06T04:17:15.187Z,0
2017-01-06T04:18:16.386Z,0
2017-01-06T04:19:15.996Z,0
2017-01-06T04:20:16.067Z,0
2017-01-06T04:21:15.669Z,0
2017-01-06T04:22:15.967Z,0
2017-01-06T04:23:15.633Z,0
2017-01-06T04:24:16.141Z,0
2017-01-06T04:25:15.998Z,0
2017-01-06T04:26:16.022Z,0
2017-01-06T04:27:16.061Z,0
2017-01-06T04:28:16.117Z,0
2017-01-06T04:29:15.726Z,0
2017-01-06T04:30:15.686Z,0
2017-01-06T04:31:15.644Z,0
2017-01-06T04:32:15.305Z,0
2017-01-06T04:33:16.130Z,0
2017-01-06T04:34:15.768Z,0
2017-01-06T04:35:15.776Z,0
2017-01-06T04:36:16.529Z,0
2017-01-06T04:37:16.548Z,0
2017-01-06T04:38:16.102Z,0
2017-01-06T04:39:16.253Z,0
2017-01-06T04:40:15.769Z,0
2017-01-06T04:41:15.728Z,0
2017-01-06T04:42:16.231Z,0
2017-01-06T04:43:15.393Z,0
2017-01-06T04:44:16.539Z,0
2017-01-06T04:45:15.908Z,0
2017-01-06T04:46:16.554Z,0
2017-01-06T04:47:16.663Z,0
2017-01-06T04:48:16.302Z,0
2017-01-06T04:49:16.680Z,0
2017-01-06T04:50:15.942Z,0
2017-01-06T04:51:16.697Z,0
2017-01-06T04:52:16.701Z,0
2017-01-06T04:53:16.614Z,0
2017-01-06T04:54:15.927Z,0
2017-01-06T04:55:16.277Z,0
2017-01-06T04:56:16.290Z,0
2017-01-06T04:57:16.362Z,0
2017-01-06T04:58:16.650Z,0
2017-01-06T04:59:15.913Z,0
2017-01-06T05:00:15.534Z,0
2017-01-06T05:01:16.327Z,0
2017-01-06T05:02:16.828Z,0
2017-01-06T05:03:16.414Z,0
2017-01-06T05:04:16.352Z,0
2017-01-06T05:05:16.753Z,0
2017-01-06T05:06:16.766Z,0
2017-01-06T05:07:16.771Z,0
2017-01-06T05:08:17.079Z,0
2017-01-06T05:09:15.597Z,0
2017-01-06T05:10:16.354Z,0
2017-01-06T05:11:16.454Z,0
2017-01-06T05:12:16.072Z,0
2017-01-06T05:13:16.418Z,0
2017-01-06T05:14:16.429Z,0
2017-01-06T05:15:15.645Z,0
2017-01-06T05:16:16.441Z,0
2017-01-06T05:17:16.553Z,0
2017-01-06T05:18:16.121Z,0
2017-01-06T05:19:16.080Z,0
2017-01-06T05:20:15.629Z,0
2017-01-06T05:21:16.141Z,0
2017-01-06T05:22:16.539Z,0
2017-01-06T05:23:16.056Z,0
2017-01-06T05:24:16.560Z,0
2017-01-06T05:25:15.720Z,0
2017-01-06T05:26:16.087Z,0
2017-01-06T05:27:16.527Z,0
2017-01-06T05:28:16.588Z,0
2017-01-06T05:29:16.996Z,0
2017-01-06T05:30:16.654Z,0
2017-01-06T05:31:16.609Z,0
2017-01-06T05:32:16.576Z,0
2017-01-06T05:33:16.234Z,0
2017-01-06T05:34:16.589Z,0
2017-01-06T05:35:16.595Z,0
2017-01-06T05:36:16.155Z,0
2017-01-06T05:37:16.663Z,0
2017-01-06T05:38:16.665Z,0
2017-01-06T05:39:16.585Z,0
2017-01-06T05:40:15.893Z,0
2017-01-06T05:41:16.643Z,0
2017-01-06T05:42:16.604Z,0
2017-01-06T05:43:16.265Z,0
2017-01-06T05:44:17.164Z,0
2017-01-06T05:45:16.725Z,0
2017-01-06T05:46:16.728Z,0
2017-01-06T05:47:17.036Z,0
2017-01-06T05:48:16.646Z,0
2017-01-06T05:49:17.098Z,0
2017-01-06T05:50:16.763Z,0
2017-01-06T05:51:16.722Z,0
2017-01-06T05:52:16.385Z,0
2017-01-06T05:53:16.392Z,0
2017-01-06T05:54:16.326Z,0
2017-01-06T05:55:16.408Z,0
2017-01-06T05:56:17.260Z,0
2017-01-06T05:57:16.721Z,0
2017-01-06T05:58:16.778Z,0
2017-01-06T05:59:16.788Z,0
2017-01-06T06:00:17.187Z,0
2017-01-06T06:01:17.295Z,0
2017-01-06T06:02:16.857Z,0
2017-01-06T06:03:16.766Z,0
2017-01-06T06:04:16.478Z,0
2017-01-06T06:05:17.278Z,0
2017-01-06T06:06:16.050Z,0
2017-01-06T06:07:16.797Z,0
2017-01-06T06:08:16.515Z,0
2017-01-06T06:09:16.417Z,0
2017-01-06T06:10:16.973Z,0
2017-01-06T06:11:17.280Z,0
2017-01-06T06:12:16.548Z,0
2017-01-06T06:13:16.949Z,0
2017-01-06T06:14:16.967Z,0
2017-01-06T06:15:16.520Z,0
2017-01-06T06:16:16.529Z,0
2017-01-06T06:17:16.541Z,0
2017-01-06T06:18:16.145Z,0
2017-01-06T06:19:16.897Z,0
2017-01-06T06:20:16.560Z,0
2017-01-06T06:21:16.479Z,0
2017-01-06T06:22:16.968Z,0
2017-01-06T06:23:16.601Z,0
2017-01-06T06:24:16.642Z,0
2017-01-06T06:25:17.369Z,0
2017-01-06T06:26:16.706Z,0
2017-01-06T06:27:17.163Z,0
2017-01-06T06:28:16.622Z,0
2017-01-06T06:29:16.983Z,0
2017-01-06T06:30:16.637Z,0
2017-01-06T06:31:17.735Z,0
2017-01-06T06:32:16.998Z,0
2017-01-06T06:33:17.160Z,0
2017-01-06T06:34:16.672Z,0
2017-01-06T06:35:17.724Z,0
2017-01-06T06:36:16.684Z,0
2017-01-06T06:37:17.088Z,0
2017-01-06T06:38:17.044Z,0
2017-01-06T06:39:16.708Z,0
2017-01-06T06:40:17.111Z,0
2017-01-06T06:41:16.678Z,0
2017-01-06T06:42:17.128Z,0
2017-01-06T06:43:17.138Z,0
2017-01-06T06:44:16.747Z,0
2017-01-06T06:45:16.807Z,0
2017-01-06T06:46:17.161Z,0
2017-01-06T06:47:16.429Z,0
2017-01-06T06:48:17.127Z,0
2017-01-06T06:49:17.188Z,0
2017-01-06T06:50:17.538Z,0
2017-01-06T06:51:17.199Z,0
2017-01-06T06:52:17.601Z,0
2017-01-06T06:53:16.768Z,0
2017-01-06T06:54:17.613Z,0
2017-01-06T06:55:17.183Z,0
2017-01-06T06:56:17.343Z,0
2017-01-06T06:57:17.693Z,0
2017-01-06T06:58:17.254Z,0
2017-01-06T06:59:17.363Z,0
2017-01-06T07:00:17.271Z,0
2017-01-06T07:01:16.887Z,0
2017-01-06T07:02:16.942Z,4
2017-01-06T07:03:17.295Z,4
2017-01-06T07:04:17.347Z,0
2017-01-06T07:05:17.009Z,0
2017-01-06T07:06:16.532Z,4
2017-01-06T07:07:17.325Z,4
2017-01-06T07:08:17.728Z,0
2017-01-06T07:09:17.293Z,4
2017-01-06T07:10:17.350Z,4
2017-01-06T07:11:16.959Z,4
2017-01-06T07:12:16.916Z,4
2017-01-06T07:13:16.923Z,4
2017-01-06T07:14:16.986Z,8
2017-01-06T07:15:16.548Z,8
2017-01-06T07:16:17.005Z,8
2017-01-06T07:17:17.055Z,8
2017-01-06T07:18:17.907Z,8
2017-01-06T07:19:17.021Z,8
2017-01-06T07:20:17.476Z,12
2017-01-06T07:21:17.383Z,12
2017-01-06T07:22:17.497Z,12
2017-01-06T07:23:17.054Z,16
2017-01-06T07:24:17.901Z,16
2017-01-06T07:25:17.033Z,20
2017-01-06T07:26:17.073Z,20
2017-01-06T07:27:17.132Z,24
2017-01-06T07:28:17.488Z,28
2017-01-06T07:29:17.150Z,28
2017-01-06T07:30:17.132Z,32
2017-01-06T07:31:17.461Z,36
2017-01-06T07:32:16.722Z,40
2017-01-06T07:33:17.524Z,44
2017-01-06T07:34:18.027Z,48
2017-01-06T07:35:17.652Z,52
2017-01-06T07:36:17.600Z,56
2017-01-06T07:37:17.169Z,64
2017-01-06T07:38:17.115Z,68
2017-01-06T07:39:17.576Z,72
2017-01-06T07:40:17.233Z,72
2017-01-06T07:41:17.631Z,80
2017-01-06T07:42:17.250Z,88
2017-01-06T07:43:16.759Z,88
2017-01-06T07:44:18.010Z,96
2017-01-06T07:45:18.119Z,104
2017-01-06T07:46:17.978Z,108
2017-01-06T07:47:17.685Z,120
2017-01-06T07:48:17.667Z,132
2017-01-06T07:49:17.257Z,144
2017-01-06T07:50:18.008Z,152
2017-01-06T07:51:17.776Z,164
2017-01-06T07:52:17.730Z,168
2017-01-06T07:53:18.081Z,176
2017-01-06T07:54:18.041Z,184
2017-01-06T07:55:17.302Z,196
2017-01-06T07:56:17.759Z,212
2017-01-06T07:57:17.767Z,216
2017-01-06T07:58:17.282Z,224
2017-01-06T07:59:17.735Z,236
2017-01-06T08:00:18.121Z,248
2017-01-06T08:01:17.355Z,256
2017-01-06T08:02:17.427Z,268
2017-01-06T08:03:18.161Z,276
2017-01-06T08:04:17.438Z,284
2017-01-06T08:05:17.394Z,292
2017-01-06T08:06:17.526Z,304
2017-01-06T08:07:17.508Z,312
2017-01-06T08:08:17.862Z,320
2017-01-06T08:09:17.822Z,328
2017-01-06T08:10:18.225Z,336
2017-01-06T08:11:17.443Z,344
2017-01-06T08:12:17.455Z,348
2017-01-06T08:13:17.808Z,356
2017-01-06T08:14:17.868Z,360
2017-01-06T08:15:17.487Z,368
2017-01-06T08:16:17.835Z,368
2017-01-06T08:17:18.337Z,372
2017-01-06T08:18:18.348Z,384
2017-01-06T08:19:17.614Z,392
2017-01-06T08:20:18.364Z,396
2017-01-06T08:21:18.274Z,400
2017-01-06T08:22:17.251Z,400
2017-01-06T08:23:17.945Z,404
2017-01-06T08:24:17.508Z,404
2017-01-06T08:25:18.063Z,416
2017-01-06T08:26:17.684Z,416
2017-01-06T08:27:17.933Z,420
2017-01-06T08:28:17.965Z,420
2017-01-06T08:29:17.210Z,424
2017-01-06T08:30:18.356Z,428
2017-01-06T08:31:17.277Z,424
2017-01-06T08:32:18.471Z,420
2017-01-06T08:33:18.094Z,420
2017-01-06T08:34:18.054Z,428
2017-01-06T08:35:18.450Z,440
2017-01-06T08:36:17.672Z,456
2017-01-06T08:37:18.075Z,464
2017-01-06T08:38:17.634Z,460
2017-01-06T08:39:18.587Z,472
2017-01-06T08:40:17.353Z,496
2017-01-06T08:41:18.158Z,536
2017-01-06T08:42:18.073Z,580
2017-01-06T08:43:17.287Z,660
2017-01-06T08:44:18.138Z,804
2017-01-06T08:45:18.250Z,896
2017-01-06T08:46:18.555Z,816
2017-01-06T08:47:17.773Z,856
2017-01-06T08:48:18.140Z,908
2017-01-06T08:49:17.741Z,664
2017-01-06T08:50:18.191Z,692
2017-01-06T08:51:17.849Z,684
2017-01-06T08:52:18.310Z,724
2017-01-06T08:53:18.563Z,780
2017-01-06T08:54:18.181Z,756
2017-01-06T08:55:18.238Z,752
2017-01-06T08:56:17.863Z,888
2017-01-06T08:57:18.257Z,924
2017-01-06T08:58:18.320Z,880
2017-01-06T08:59:18.672Z,804
2017-01-06T09:00:18.285Z,784
2017-01-06T09:01:18.687Z,804
2017-01-06T09:02:17.854Z,1068
2017-01-06T09:03:17.968Z,1196
2017-01-06T09:04:18.376Z,1348
2017-01-06T09:05:18.728Z,1548
2017-01-06T09:06:18.343Z,1660
2017-01-06T09:07:18.348Z,1704
2017-01-06T09:08:17.519Z,1424
2017-01-06T09:09:17.632Z,1308
2017-01-06T09:10:17.988Z,1416
2017-01-06T09:11:17.948Z,1580
2017-01-06T09:12:18.882Z,956
2017-01-06T09:13:17.972Z,1004
2017-01-06T09:14:18.868Z,900
2017-01-06T09:15:18.831Z,904
2017-01-06T09:16:18.051Z,1268
2017-01-06T09:17:18.402Z,1644
2017-01-06T09:18:18.910Z,1772
2017-01-06T09:19:18.132Z,1768
2017-01-06T09:20:18.394Z,2008
2017-01-06T09:21:18.563Z,2012
2017-01-06T09:22:18.111Z,1280
2017-01-06T09:23:18.517Z,1024
2017-01-06T09:24:18.532Z,1412
2017-01-06T09:25:18.545Z,1728
2017-01-06T09:26:18.955Z,1964
2017-01-06T09:27:18.614Z,1700
2017-01-06T09:28:18.128Z,1556
2017-01-06T09:29:18.595Z,1432
2017-01-06T09:30:18.552Z,1528
2017-01-06T09:31:18.369Z,1852
2017-01-06T09:32:18.623Z,1780
2017-01-06T09:33:18.633Z,1788
2017-01-06T09:34:18.643Z,1224
2017-01-06T09:35:17.861Z,1336
2017-01-06T09:36:18.216Z,1664
2017-01-06T09:37:18.279Z,1628
2017-01-06T09:38:19.081Z,1592
2017-01-06T09:39:19.046Z,1564
2017-01-06T09:40:18.705Z,1532
2017-01-06T09:41:18.715Z,1456
2017-01-06T09:42:19.075Z,1472
2017-01-06T09:43:19.090Z,1420
2017-01-06T09:44:18.411Z,1388
2017-01-06T09:45:17.916Z,1384
2017-01-06T09:46:18.742Z,1416
2017-01-06T09:47:19.177Z,1452
2017-01-06T09:48:19.286Z,1384
2017-01-06T09:49:18.559Z,1504
2017-01-06T09:50:19.149Z,1524
2017-01-06T09:51:18.374Z,1524
2017-01-06T09:52:19.258Z,1548
2017-01-06T09:53:18.785Z,1564
2017-01-06T09:54:19.189Z,1568
2017-01-06T09:55:18.905Z,1560
2017-01-06T09:56:18.471Z,1560
2017-01-06T09:57:18.925Z,1560
2017-01-06T09:58:18.484Z,1604
2017-01-06T09:59:18.890Z,1636
2017-01-06T10:00:18.565Z,1612
2017-01-06T10:01:18.963Z,1560
2017-01-06T10:02:18.525Z,1500
2017-01-06T10:03:18.487Z,1560
2017-01-06T10:04:18.492Z,1452
2017-01-06T10:05:18.210Z,1352
2017-01-06T10:06:18.614Z,1308
2017-01-06T10:07:18.284Z,1164
2017-01-06T10:08:18.534Z,1068
2017-01-06T10:09:19.047Z,872
2017-01-06T10:10:19.050Z,836
2017-01-06T10:11:19.661Z,724
2017-01-06T10:12:19.411Z,736
2017-01-06T10:13:19.531Z,836
2017-01-06T10:14:18.990Z,636
2017-01-06T10:15:19.152Z,572
2017-01-06T10:16:19.155Z,752
2017-01-06T10:17:19.113Z,600
2017-01-06T10:18:19.027Z,496
2017-01-06T10:19:19.481Z,496
2017-01-06T10:20:19.150Z,524
2017-01-06T10:21:18.708Z,524
2017-01-06T10:22:18.767Z,556
2017-01-06T10:23:18.776Z,580
2017-01-06T10:24:19.134Z,592
2017-01-06T10:25:19.246Z,684
2017-01-06T10:26:18.462Z,700
2017-01-06T10:27:18.813Z,688
2017-01-06T10:28:18.380Z,656
2017-01-06T10:29:18.787Z,728
2017-01-06T10:30:19.190Z,728
2017-01-06T10:31:18.798Z,684
2017-01-06T10:32:19.204Z,676
2017-01-06T10:33:19.220Z,648
2017-01-06T10:34:19.670Z,644
2017-01-06T10:35:19.629Z,668
2017-01-06T10:36:19.591Z,720
2017-01-06T10:37:19.251Z,676
2017-01-06T10:38:19.657Z,736
2017-01-06T10:39:19.371Z,720
2017-01-06T10:40:18.437Z,740
2017-01-06T10:41:19.287Z,760
2017-01-06T10:42:19.645Z,784
2017-01-06T10:43:18.962Z,752
2017-01-06T10:44:19.326Z,772
2017-01-06T10:45:19.323Z,832
2017-01-06T10:46:19.333Z,832
2017-01-06T10:47:18.948Z,820
2017-01-06T10:48:19.906Z,804
2017-01-06T10:49:19.407Z,756
2017-01-06T10:50:19.821Z,708
2017-01-06T10:51:18.985Z,672
2017-01-06T10:52:19.830Z,660
2017-01-06T10:53:19.445Z,664
2017-01-06T10:54:19.848Z,620
2017-01-06T10:55:19.459Z,604
2017-01-06T10:56:19.024Z,588
2017-01-06T10:57:19.428Z,596
2017-01-06T10:58:19.496Z,612
2017-01-06T10:59:19.841Z,596
2017-01-06T11:00:19.852Z,568
2017-01-06T11:01:19.416Z,544
2017-01-06T11:02:19.131Z,592
2017-01-06T11:03:18.735Z,612
2017-01-06T11:04:19.090Z,612
2017-01-06T11:05:19.898Z,632
2017-01-06T11:06:19.505Z,644
2017-01-06T11:07:19.221Z,640
2017-01-06T11:08:19.077Z,628
2017-01-06T11:09:19.137Z,608
2017-01-06T11:10:19.142Z,616
2017-01-06T11:11:19.514Z,592
2017-01-06T11:12:18.766Z,612
2017-01-06T11:13:20.012Z,624
2017-01-06T11:14:19.230Z,612
2017-01-06T11:15:19.529Z,592
2017-01-06T11:16:19.592Z,592
2017-01-06T11:17:19.996Z,588
2017-01-06T11:18:19.659Z,564
2017-01-06T11:19:19.221Z,540
2017-01-06T11:20:20.023Z,548
2017-01-06T11:21:20.129Z,556
2017-01-06T11:22:19.657Z,552
2017-01-06T11:23:19.259Z,552
2017-01-06T11:24:20.070Z,564
2017-01-06T11:25:19.349Z,572
2017-01-06T11:26:19.233Z,588
2017-01-06T11:27:19.340Z,592
2017-01-06T11:28:20.043Z,596
2017-01-06T11:29:19.754Z,584
2017-01-06T11:30:20.126Z,520
2017-01-06T11:31:19.380Z,516
2017-01-06T11:32:19.389Z,524
2017-01-06T11:33:19.396Z,520
2017-01-06T11:34:19.305Z,604
2017-01-06T11:35:20.563Z,600
2017-01-06T11:36:19.771Z,580
2017-01-06T11:37:20.180Z,544
2017-01-06T11:38:19.838Z,596
2017-01-06T11:39:19.390Z,568
2017-01-06T11:40:19.400Z,632
2017-01-06T11:41:19.407Z,612
2017-01-06T11:42:19.814Z,528
2017-01-06T11:43:19.476Z,520
2017-01-06T11:44:19.832Z,588
2017-01-06T11:45:20.234Z,612
2017-01-06T11:46:19.501Z,684
2017-01-06T11:47:19.477Z,672
2017-01-06T11:48:19.471Z,668
2017-01-06T11:49:19.839Z,664
2017-01-06T11:50:19.139Z,664
2017-01-06T11:51:20.236Z,660
2017-01-06T11:52:19.915Z,656
2017-01-06T11:53:19.522Z,648
2017-01-06T11:54:19.571Z,640
2017-01-06T11:55:19.128Z,636
2017-01-06T11:56:19.936Z,640
2017-01-06T11:57:20.340Z,632
2017-01-06T11:58:19.949Z,624
2017-01-06T11:59:20.009Z,624
2017-01-06T12:00:20.023Z,632
2017-01-06T12:01:20.375Z,628
2017-01-06T12:02:19.984Z,632
2017-01-06T12:03:19.652Z,628
2017-01-06T12:04:20.064Z,632
2017-01-06T12:05:20.010Z,624
2017-01-06T12:06:19.718Z,620
2017-01-06T12:07:19.198Z,604
2017-01-06T12:08:20.785Z,544
2017-01-06T12:09:20.642Z,608
2017-01-06T12:10:20.057Z,608
2017-01-06T12:11:20.360Z,604
2017-01-06T12:12:19.227Z,584
2017-01-06T12:13:20.126Z,588
2017-01-06T12:14:20.099Z,580
2017-01-06T12:15:20.499Z,576
2017-01-06T12:16:20.154Z,568
2017-01-06T12:17:19.712Z,568
2017-01-06T12:18:20.126Z,556
2017-01-06T12:19:19.737Z,532
2017-01-06T12:20:19.789Z,536
2017-01-06T12:21:20.246Z,552
2017-01-06T12:22:20.253Z,548
2017-01-06T12:23:20.611Z,544
2017-01-06T12:24:20.271Z,540
2017-01-06T12:25:19.799Z,532
2017-01-06T12:26:19.799Z,528
2017-01-06T12:27:20.691Z,528
2017-01-06T12:28:20.307Z,524
2017-01-06T12:29:20.211Z,524
2017-01-06T12:30:20.272Z,516
2017-01-06T12:31:20.572Z,516
2017-01-06T12:32:20.341Z,508
2017-01-06T12:33:19.856Z,512
2017-01-06T12:34:20.204Z,496
2017-01-06T12:35:19.924Z,496
2017-01-06T12:36:20.274Z,488
2017-01-06T12:37:20.329Z,484
2017-01-06T12:38:20.354Z,484
2017-01-06T12:39:20.401Z,476
2017-01-06T12:40:21.003Z,480
2017-01-06T12:41:20.367Z,472
2017-01-06T12:42:20.322Z,468
2017-01-06T12:43:20.430Z,464
2017-01-06T12:44:20.488Z,472
2017-01-06T12:45:20.793Z,472
2017-01-06T12:46:19.914Z,468
2017-01-06T12:47:20.365Z,468
2017-01-06T12:48:20.820Z,476
2017-01-06T12:49:20.737Z,468
2017-01-06T12:50:20.395Z,468
2017-01-06T12:51:20.404Z,472
2017-01-06T12:52:19.666Z,476
2017-01-06T12:53:20.075Z,472
2017-01-06T12:54:20.579Z,472
2017-01-06T12:55:19.695Z,468
2017-01-06T12:56:20.049Z,468
2017-01-06T12:57:20.847Z,464
2017-01-06T12:58:20.092Z,460
2017-01-06T12:59:20.822Z,464
2017-01-06T13:00:20.526Z,452
2017-01-06T13:01:20.536Z,448
2017-01-06T13:02:20.492Z,452
2017-01-06T13:03:20.907Z,452
2017-01-06T13:04:20.114Z,452
2017-01-06T13:05:20.577Z,452
2017-01-06T13:06:20.978Z,452
2017-01-06T13:07:20.487Z,456
2017-01-06T13:08:20.547Z,460
2017-01-06T13:09:20.159Z,464
2017-01-06T13:10:20.567Z,468
2017-01-06T13:11:20.226Z,468
2017-01-06T13:12:21.025Z,468
2017-01-06T13:13:19.847Z,468
2017-01-06T13:14:19.858Z,468
2017-01-06T13:15:20.558Z,472
2017-01-06T13:16:20.717Z,476
2017-01-06T13:17:19.882Z,480
2017-01-06T13:18:19.856Z,484
2017-01-06T13:19:20.245Z,488
2017-01-06T13:20:20.253Z,492
2017-01-06T13:21:20.318Z,488
2017-01-06T13:22:19.979Z,484
2017-01-06T13:23:21.074Z,476
2017-01-06T13:24:20.683Z,460
2017-01-06T13:25:20.244Z,420
2017-01-06T13:26:21.096Z,392
2017-01-06T13:27:20.764Z,360
2017-01-06T13:28:22.324Z,352
2017-01-06T13:29:20.783Z,344
2017-01-06T13:30:20.786Z,336
2017-01-06T13:31:20.349Z,332
2017-01-06T13:32:20.354Z,324
2017-01-06T13:33:21.155Z,320
2017-01-06T13:34:20.831Z,320
2017-01-06T13:35:20.875Z,320
2017-01-06T13:36:20.334Z,320
2017-01-06T13:37:20.843Z,316
2017-01-06T13:38:21.198Z,316
2017-01-06T13:39:20.511Z,308
2017-01-06T13:40:20.871Z,308
2017-01-06T13:41:20.775Z,308
2017-01-06T13:42:20.836Z,308
2017-01-06T13:43:20.393Z,316
2017-01-06T13:44:20.898Z,316
2017-01-06T13:45:21.301Z,320
2017-01-06T13:46:20.864Z,324
2017-01-06T13:47:20.477Z,324
2017-01-06T13:48:21.623Z,324
2017-01-06T13:49:20.448Z,320
2017-01-06T13:50:21.003Z,316
2017-01-06T13:51:20.960Z,308
2017-01-06T13:52:20.918Z,304
2017-01-06T13:53:20.478Z,300
2017-01-06T13:54:20.194Z,300
2017-01-06T13:55:20.105Z,296
2017-01-06T13:56:20.551Z,292
2017-01-06T13:57:21.356Z,292
2017-01-06T13:58:35.456Z,288
2017-01-06T13:59:20.580Z,288
2017-01-06T14:00:20.543Z,292
2017-01-06T14:01:20.647Z,300
2017-01-06T14:02:20.550Z,300
2017-01-06T14:03:21.401Z,320
2017-01-06T14:04:21.662Z,328
2017-01-06T14:05:20.630Z,336
2017-01-06T14:06:21.477Z,344
2017-01-06T14:07:21.443Z,348
2017-01-06T14:08:20.705Z,344
2017-01-06T14:09:21.054Z,340
2017-01-06T14:10:20.327Z,336
2017-01-06T14:11:20.234Z,336
2017-01-06T14:12:20.639Z,332
2017-01-06T14:13:21.140Z,332
2017-01-06T14:14:21.148Z,328
2017-01-06T14:15:20.388Z,324